sensor_id;sensor_type;location;lat;lon;timestamp;P1;durP1;ratioP1;P2;durP2;ratioP2
47381;SDS011;33128;51.580;5.170;2022-11-06T00:01:14;25.77;;;24.08;;
47381;SDS011;33128;51.580;5.170;2022-11-06T00:03:40;25.13;;;23.60;;
47381;SDS011;33128;51.580;5.170;2022-11-06T00:06:10;24.45;;;23.15;;
47381;SDS011;33128;51.580;5.170;2022-11-06T00:08:57;24.08;;;22.77;;
47381;SDS011;33128;51.580;5.170;2022-11-06T00:11:23;25.52;;;24.33;;
47381;SDS011;33128;51.580;5.170;2022-11-06T00:13:49;25.98;;;24.83;;
47381;SDS011;33128;51.580;5.170;2022-11-06T00:16:16;26.55;;;24.58;;
47381;SDS011;33128;51.580;5.170;2022-11-06T00:18:45;25.02;;;23.92;;
47381;SDS011;33128;51.580;5.170;2022-11-06T00:21:15;25.67;;;23.98;;
47381;SDS011;33128;51.580;5.170;2022-11-06T00:23:43;24.13;;;23.00;;
47381;SDS011;33128;51.580;5.170;2022-11-06T00:26:10;26.52;;;24.17;;
47381;SDS011;33128;51.580;5.170;2022-11-06T00:28:41;26.27;;;24.63;;
47381;SDS011;33128;51.580;5.170;2022-11-06T00:31:08;25.67;;;24.25;;
47381;SDS011;33128;51.580;5.170;2022-11-06T00:33:35;24.73;;;23.63;;
47381;SDS011;33128;51.580;5.170;2022-11-06T00:36:02;25.90;;;24.58;;
47381;SDS011;33128;51.580;5.170;2022-11-06T00:38:29;26.48;;;24.70;;
47381;SDS011;33128;51.580;5.170;2022-11-06T00:41:01;25.77;;;24.20;;
47381;SDS011;33128;51.580;5.170;2022-11-06T00:43:28;28.10;;;26.42;;
47381;SDS011;33128;51.580;5.170;2022-11-06T00:45:59;26.27;;;24.40;;
47381;SDS011;33128;51.580;5.170;2022-11-06T00:48:25;25.90;;;24.70;;
47381;SDS011;33128;51.580;5.170;2022-11-06T00:50:51;26.27;;;24.85;;
47381;SDS011;33128;51.580;5.170;2022-11-06T00:53:17;28.25;;;26.42;;
47381;SDS011;33128;51.580;5.170;2022-11-06T00:55:42;27.35;;;26.10;;
47381;SDS011;33128;51.580;5.170;2022-11-06T00:58:08;29.00;;;26.95;;
47381;SDS011;33128;51.580;5.170;2022-11-06T01:00:33;27.88;;;26.50;;
47381;SDS011;33128;51.580;5.170;2022-11-06T01:02:59;30.58;;;28.25;;
47381;SDS011;33128;51.580;5.170;2022-11-06T01:05:24;31.98;;;30.25;;
47381;SDS011;33128;51.580;5.170;2022-11-06T01:07:50;32.42;;;30.83;;
47381;SDS011;33128;51.580;5.170;2022-11-06T01:10:16;32.58;;;30.88;;
47381;SDS011;33128;51.580;5.170;2022-11-06T01:12:42;32.10;;;30.65;;
47381;SDS011;33128;51.580;5.170;2022-11-06T01:15:07;32.90;;;31.10;;
47381;SDS011;33128;51.580;5.170;2022-11-06T01:17:33;33.95;;;31.80;;
47381;SDS011;33128;51.580;5.170;2022-11-06T01:19:59;34.00;;;32.45;;
47381;SDS011;33128;51.580;5.170;2022-11-06T01:22:25;34.35;;;32.80;;
47381;SDS011;33128;51.580;5.170;2022-11-06T01:24:50;33.08;;;31.45;;
47381;SDS011;33128;51.580;5.170;2022-11-06T01:27:16;32.72;;;30.98;;
47381;SDS011;33128;51.580;5.170;2022-11-06T01:29:42;32.65;;;30.92;;
47381;SDS011;33128;51.580;5.170;2022-11-06T01:32:08;33.17;;;31.38;;
47381;SDS011;33128;51.580;5.170;2022-11-06T01:34:36;32.25;;;30.70;;
47381;SDS011;33128;51.580;5.170;2022-11-06T01:37:02;32.35;;;29.98;;
47381;SDS011;33128;51.580;5.170;2022-11-06T01:39:29;32.47;;;30.77;;
47381;SDS011;33128;51.580;5.170;2022-11-06T01:41:55;33.20;;;31.50;;
47381;SDS011;33128;51.580;5.170;2022-11-06T01:47:17;32.17;;;30.38;;
47381;SDS011;33128;51.580;5.170;2022-11-06T01:49:46;32.22;;;30.42;;
47381;SDS011;33128;51.580;5.170;2022-11-06T01:52:12;31.40;;;29.85;;
47381;SDS011;33128;51.580;5.170;2022-11-06T01:54:39;32.78;;;31.17;;
47381;SDS011;33128;51.580;5.170;2022-11-06T01:57:06;32.60;;;30.60;;
47381;SDS011;33128;51.580;5.170;2022-11-06T01:59:35;32.08;;;30.15;;
47381;SDS011;33128;51.580;5.170;2022-11-06T02:02:03;30.95;;;29.20;;
47381;SDS011;33128;51.580;5.170;2022-11-06T02:04:33;30.35;;;28.98;;
47381;SDS011;33128;51.580;5.170;2022-11-06T02:07:02;30.70;;;29.40;;
47381;SDS011;33128;51.580;5.170;2022-11-06T02:09:29;34.08;;;32.22;;
47381;SDS011;33128;51.580;5.170;2022-11-06T02:11:59;33.15;;;31.58;;
47381;SDS011;33128;51.580;5.170;2022-11-06T02:14:33;32.10;;;30.65;;
47381;SDS011;33128;51.580;5.170;2022-11-06T02:17:13;33.05;;;31.20;;
47381;SDS011;33128;51.580;5.170;2022-11-06T02:20:04;34.10;;;32.50;;
47381;SDS011;33128;51.580;5.170;2022-11-06T02:25:45;34.30;;;32.80;;
47381;SDS011;33128;51.580;5.170;2022-11-06T02:28:36;34.65;;;32.67;;
47381;SDS011;33128;51.580;5.170;2022-11-06T02:31:12;34.33;;;32.17;;
47381;SDS011;33128;51.580;5.170;2022-11-06T02:33:43;34.45;;;32.60;;
47381;SDS011;33128;51.580;5.170;2022-11-06T02:36:14;33.42;;;31.55;;
47381;SDS011;33128;51.580;5.170;2022-11-06T02:38:50;34.17;;;31.80;;
47381;SDS011;33128;51.580;5.170;2022-11-06T02:43:49;34.10;;;32.60;;
47381;SDS011;33128;51.580;5.170;2022-11-06T02:46:23;34.63;;;32.92;;
47381;SDS011;33128;51.580;5.170;2022-11-06T02:49:08;34.65;;;32.92;;
47381;SDS011;33128;51.580;5.170;2022-11-06T02:51:52;33.20;;;31.60;;
47381;SDS011;33128;51.580;5.170;2022-11-06T02:54:22;32.55;;;31.02;;
47381;SDS011;33128;51.580;5.170;2022-11-06T02:56:52;34.50;;;32.75;;
47381;SDS011;33128;51.580;5.170;2022-11-06T02:59:25;34.05;;;32.42;;
47381;SDS011;33128;51.580;5.170;2022-11-06T03:02:23;34.40;;;32.78;;
47381;SDS011;33128;51.580;5.170;2022-11-06T03:04:54;34.53;;;32.97;;
47381;SDS011;33128;51.580;5.170;2022-11-06T03:07:27;33.95;;;32.30;;
47381;SDS011;33128;51.580;5.170;2022-11-06T03:10:04;33.25;;;31.73;;
47381;SDS011;33128;51.580;5.170;2022-11-06T03:18:26;33.90;;;31.83;;
47381;SDS011;33128;51.580;5.170;2022-11-06T03:23:49;33.40;;;31.70;;
47381;SDS011;33128;51.580;5.170;2022-11-06T03:26:27;33.45;;;31.75;;
47381;SDS011;33128;51.580;5.170;2022-11-06T03:29:02;32.55;;;31.05;;
47381;SDS011;33128;51.580;5.170;2022-11-06T03:31:39;32.55;;;30.52;;
47381;SDS011;33128;51.580;5.170;2022-11-06T03:34:35;33.30;;;31.52;;
47381;SDS011;33128;51.580;5.170;2022-11-06T03:37:14;32.50;;;30.95;;
47381;SDS011;33128;51.580;5.170;2022-11-06T03:39:47;33.10;;;31.40;;
47381;SDS011;33128;51.580;5.170;2022-11-06T03:42:19;32.10;;;30.70;;
47381;SDS011;33128;51.580;5.170;2022-11-06T03:44:50;32.13;;;30.67;;
47381;SDS011;33128;51.580;5.170;2022-11-06T03:47:28;30.70;;;29.05;;
47381;SDS011;33128;51.580;5.170;2022-11-06T03:50:32;31.75;;;30.35;;
47381;SDS011;33128;51.580;5.170;2022-11-06T03:52:55;31.65;;;30.35;;
47381;SDS011;33128;51.580;5.170;2022-11-06T03:55:25;31.30;;;29.75;;
47381;SDS011;33128;51.580;5.170;2022-11-06T03:57:57;31.90;;;30.40;;
47381;SDS011;33128;51.580;5.170;2022-11-06T04:00:28;32.17;;;30.77;;
47381;SDS011;33128;51.580;5.170;2022-11-06T04:02:57;31.23;;;29.88;;
47381;SDS011;33128;51.580;5.170;2022-11-06T04:05:31;31.63;;;30.33;;
47381;SDS011;33128;51.580;5.170;2022-11-06T04:08:02;32.08;;;30.52;;
47381;SDS011;33128;51.580;5.170;2022-11-06T04:10:49;32.00;;;30.38;;
47381;SDS011;33128;51.580;5.170;2022-11-06T04:13:36;31.83;;;30.30;;
47381;SDS011;33128;51.580;5.170;2022-11-06T04:16:23;32.88;;;31.10;;
47381;SDS011;33128;51.580;5.170;2022-11-06T04:18:50;32.97;;;30.95;;
47381;SDS011;33128;51.580;5.170;2022-11-06T04:27:20;31.35;;;29.90;;
47381;SDS011;33128;51.580;5.170;2022-11-06T04:30:10;32.25;;;30.85;;
47381;SDS011;33128;51.580;5.170;2022-11-06T04:32:55;32.25;;;30.67;;
47381;SDS011;33128;51.580;5.170;2022-11-06T04:40:55;32.22;;;30.83;;
47381;SDS011;33128;51.580;5.170;2022-11-06T04:43:37;31.95;;;30.23;;
47381;SDS011;33128;51.580;5.170;2022-11-06T04:46:05;30.98;;;29.58;;
47381;SDS011;33128;51.580;5.170;2022-11-06T04:48:34;32.03;;;30.63;;
47381;SDS011;33128;51.580;5.170;2022-11-06T04:51:02;33.08;;;31.48;;
47381;SDS011;33128;51.580;5.170;2022-11-06T04:53:32;31.83;;;30.40;;
47381;SDS011;33128;51.580;5.170;2022-11-06T04:56:00;33.20;;;31.15;;
47381;SDS011;33128;51.580;5.170;2022-11-06T04:58:33;32.03;;;30.52;;
47381;SDS011;33128;51.580;5.170;2022-11-06T05:00:58;32.08;;;30.15;;
47381;SDS011;33128;51.580;5.170;2022-11-06T05:03:30;31.30;;;29.90;;
47381;SDS011;33128;51.580;5.170;2022-11-06T05:05:55;31.00;;;29.60;;
47381;SDS011;33128;51.580;5.170;2022-11-06T05:08:24;30.85;;;29.23;;
47381;SDS011;33128;51.580;5.170;2022-11-06T05:10:49;32.60;;;30.20;;
47381;SDS011;33128;51.580;5.170;2022-11-06T05:13:15;30.88;;;29.33;;
47381;SDS011;33128;51.580;5.170;2022-11-06T05:15:40;31.00;;;29.25;;
47381;SDS011;33128;51.580;5.170;2022-11-06T05:18:06;31.52;;;30.13;;
47381;SDS011;33128;51.580;5.170;2022-11-06T05:20:35;31.83;;;29.77;;
47381;SDS011;33128;51.580;5.170;2022-11-06T05:23:00;32.35;;;30.75;;
47381;SDS011;33128;51.580;5.170;2022-11-06T05:25:27;32.35;;;30.63;;
47381;SDS011;33128;51.580;5.170;2022-11-06T05:28:04;31.67;;;30.38;;
47381;SDS011;33128;51.580;5.170;2022-11-06T05:30:31;33.03;;;31.60;;
47381;SDS011;33128;51.580;5.170;2022-11-06T05:32:58;32.28;;;30.88;;
47381;SDS011;33128;51.580;5.170;2022-11-06T05:35:23;32.22;;;30.67;;
47381;SDS011;33128;51.580;5.170;2022-11-06T05:37:49;32.50;;;30.80;;
47381;SDS011;33128;51.580;5.170;2022-11-06T05:40:15;31.70;;;30.13;;
47381;SDS011;33128;51.580;5.170;2022-11-06T05:42:41;30.30;;;29.02;;
47381;SDS011;33128;51.580;5.170;2022-11-06T05:45:08;31.75;;;30.23;;
47381;SDS011;33128;51.580;5.170;2022-11-06T05:47:34;31.65;;;30.02;;
47381;SDS011;33128;51.580;5.170;2022-11-06T05:50:03;29.25;;;27.75;;
47381;SDS011;33128;51.580;5.170;2022-11-06T05:52:29;29.98;;;28.33;;
47381;SDS011;33128;51.580;5.170;2022-11-06T05:54:54;30.00;;;28.70;;
47381;SDS011;33128;51.580;5.170;2022-11-06T05:57:22;30.55;;;28.80;;
47381;SDS011;33128;51.580;5.170;2022-11-06T05:59:47;31.40;;;29.00;;
47381;SDS011;33128;51.580;5.170;2022-11-06T06:02:13;29.50;;;27.70;;
47381;SDS011;33128;51.580;5.170;2022-11-06T06:04:39;29.45;;;28.10;;
47381;SDS011;33128;51.580;5.170;2022-11-06T06:07:04;28.58;;;27.33;;
47381;SDS011;33128;51.580;5.170;2022-11-06T06:09:30;29.65;;;28.05;;
47381;SDS011;33128;51.580;5.170;2022-11-06T06:11:56;29.92;;;28.40;;
47381;SDS011;33128;51.580;5.170;2022-11-06T06:14:22;29.83;;;28.40;;
47381;SDS011;33128;51.580;5.170;2022-11-06T06:16:47;28.55;;;27.27;;
47381;SDS011;33128;51.580;5.170;2022-11-06T06:19:13;28.90;;;27.25;;
47381;SDS011;33128;51.580;5.170;2022-11-06T06:21:39;29.38;;;27.98;;
47381;SDS011;33128;51.580;5.170;2022-11-06T06:24:04;29.00;;;27.77;;
47381;SDS011;33128;51.580;5.170;2022-11-06T06:26:30;30.67;;;28.85;;
47381;SDS011;33128;51.580;5.170;2022-11-06T06:28:57;29.52;;;27.55;;
47381;SDS011;33128;51.580;5.170;2022-11-06T06:31:22;27.90;;;26.30;;
47381;SDS011;33128;51.580;5.170;2022-11-06T06:33:48;28.48;;;27.17;;
47381;SDS011;33128;51.580;5.170;2022-11-06T06:36:13;28.58;;;27.20;;
47381;SDS011;33128;51.580;5.170;2022-11-06T06:38:39;27.48;;;26.13;;
47381;SDS011;33128;51.580;5.170;2022-11-06T06:41:06;27.50;;;25.95;;
47381;SDS011;33128;51.580;5.170;2022-11-06T06:43:32;26.30;;;25.00;;
47381;SDS011;33128;51.580;5.170;2022-11-06T06:45:59;25.67;;;24.52;;
47381;SDS011;33128;51.580;5.170;2022-11-06T06:48:26;26.15;;;24.80;;
47381;SDS011;33128;51.580;5.170;2022-11-06T06:50:57;23.98;;;22.45;;
47381;SDS011;33128;51.580;5.170;2022-11-06T06:53:25;23.27;;;22.27;;
47381;SDS011;33128;51.580;5.170;2022-11-06T06:55:50;23.23;;;21.55;;
47381;SDS011;33128;51.580;5.170;2022-11-06T06:58:16;22.50;;;21.33;;
47381;SDS011;33128;51.580;5.170;2022-11-06T07:00:42;22.80;;;21.80;;
47381;SDS011;33128;51.580;5.170;2022-11-06T07:03:08;22.83;;;21.52;;
47381;SDS011;33128;51.580;5.170;2022-11-06T07:05:33;23.50;;;22.10;;
47381;SDS011;33128;51.580;5.170;2022-11-06T07:08:03;22.15;;;21.15;;
47381;SDS011;33128;51.580;5.170;2022-11-06T07:10:29;23.52;;;22.23;;
47381;SDS011;33128;51.580;5.170;2022-11-06T07:12:59;23.30;;;21.90;;
47381;SDS011;33128;51.580;5.170;2022-11-06T07:15:25;24.60;;;22.98;;
47381;SDS011;33128;51.580;5.170;2022-11-06T07:17:51;23.48;;;22.15;;
47381;SDS011;33128;51.580;5.170;2022-11-06T07:20:16;23.10;;;21.67;;
47381;SDS011;33128;51.580;5.170;2022-11-06T07:22:42;21.08;;;19.77;;
47381;SDS011;33128;51.580;5.170;2022-11-06T07:25:08;21.60;;;20.30;;
47381;SDS011;33128;51.580;5.170;2022-11-06T07:27:33;21.58;;;20.52;;
47381;SDS011;33128;51.580;5.170;2022-11-06T07:29:59;21.48;;;20.27;;
47381;SDS011;33128;51.580;5.170;2022-11-06T07:32:27;21.83;;;20.80;;
47381;SDS011;33128;51.580;5.170;2022-11-06T07:34:53;22.77;;;21.67;;
47381;SDS011;33128;51.580;5.170;2022-11-06T07:37:21;23.67;;;22.25;;
47381;SDS011;33128;51.580;5.170;2022-11-06T07:39:47;22.02;;;20.85;;
47381;SDS011;33128;51.580;5.170;2022-11-06T07:42:13;23.55;;;21.75;;
47381;SDS011;33128;51.580;5.170;2022-11-06T07:44:38;24.70;;;23.40;;
47381;SDS011;33128;51.580;5.170;2022-11-06T07:47:04;22.88;;;21.67;;
47381;SDS011;33128;51.580;5.170;2022-11-06T07:49:35;23.30;;;21.95;;
47381;SDS011;33128;51.580;5.170;2022-11-06T07:52:01;24.10;;;22.80;;
47381;SDS011;33128;51.580;5.170;2022-11-06T07:54:28;21.80;;;20.90;;
47381;SDS011;33128;51.580;5.170;2022-11-06T07:56:53;22.50;;;21.40;;
47381;SDS011;33128;51.580;5.170;2022-11-06T07:59:19;21.80;;;20.70;;
47381;SDS011;33128;51.580;5.170;2022-11-06T08:01:49;22.98;;;21.98;;
47381;SDS011;33128;51.580;5.170;2022-11-06T08:04:14;22.75;;;21.65;;
47381;SDS011;33128;51.580;5.170;2022-11-06T08:06:40;22.83;;;21.63;;
47381;SDS011;33128;51.580;5.170;2022-11-06T08:09:06;23.73;;;22.52;;
47381;SDS011;33128;51.580;5.170;2022-11-06T08:11:35;22.00;;;20.80;;
47381;SDS011;33128;51.580;5.170;2022-11-06T08:14:00;21.92;;;20.73;;
47381;SDS011;33128;51.580;5.170;2022-11-06T08:16:26;19.90;;;19.00;;
47381;SDS011;33128;51.580;5.170;2022-11-06T08:18:52;21.40;;;20.33;;
47381;SDS011;33128;51.580;5.170;2022-11-06T08:21:20;24.20;;;22.15;;
47381;SDS011;33128;51.580;5.170;2022-11-06T08:23:46;21.98;;;20.98;;
47381;SDS011;33128;51.580;5.170;2022-11-06T08:26:11;21.73;;;20.77;;
47381;SDS011;33128;51.580;5.170;2022-11-06T08:28:40;22.02;;;21.02;;
47381;SDS011;33128;51.580;5.170;2022-11-06T08:31:06;22.60;;;21.50;;
47381;SDS011;33128;51.580;5.170;2022-11-06T08:33:35;22.63;;;21.52;;
47381;SDS011;33128;51.580;5.170;2022-11-06T08:36:02;22.08;;;21.08;;
47381;SDS011;33128;51.580;5.170;2022-11-06T08:38:32;22.67;;;21.35;;
47381;SDS011;33128;51.580;5.170;2022-11-06T08:40:57;22.15;;;20.80;;
47381;SDS011;33128;51.580;5.170;2022-11-06T08:43:27;23.02;;;22.02;;
47381;SDS011;33128;51.580;5.170;2022-11-06T08:45:55;22.80;;;21.67;;
47381;SDS011;33128;51.580;5.170;2022-11-06T08:48:23;23.58;;;22.17;;
47381;SDS011;33128;51.580;5.170;2022-11-06T08:50:48;22.42;;;21.13;;
47381;SDS011;33128;51.580;5.170;2022-11-06T08:53:14;22.23;;;21.13;;
47381;SDS011;33128;51.580;5.170;2022-11-06T08:55:39;22.05;;;20.50;;
47381;SDS011;33128;51.580;5.170;2022-11-06T08:58:05;21.35;;;20.25;;
47381;SDS011;33128;51.580;5.170;2022-11-06T09:00:32;21.10;;;19.88;;
47381;SDS011;33128;51.580;5.170;2022-11-06T09:02:58;21.50;;;20.50;;
47381;SDS011;33128;51.580;5.170;2022-11-06T09:05:28;20.95;;;19.77;;
47381;SDS011;33128;51.580;5.170;2022-11-06T09:07:55;20.08;;;19.23;;
47381;SDS011;33128;51.580;5.170;2022-11-06T09:10:22;20.48;;;19.48;;
47381;SDS011;33128;51.580;5.170;2022-11-06T09:12:48;19.50;;;18.50;;
47381;SDS011;33128;51.580;5.170;2022-11-06T09:15:14;20.85;;;19.58;;
47381;SDS011;33128;51.580;5.170;2022-11-06T09:17:46;20.45;;;19.55;;
47381;SDS011;33128;51.580;5.170;2022-11-06T09:20:14;22.10;;;20.98;;
47381;SDS011;33128;51.580;5.170;2022-11-06T09:22:42;22.52;;;21.17;;
47381;SDS011;33128;51.580;5.170;2022-11-06T09:25:07;23.40;;;21.83;;
47381;SDS011;33128;51.580;5.170;2022-11-06T09:28:06;21.50;;;20.50;;
47381;SDS011;33128;51.580;5.170;2022-11-06T09:30:27;23.13;;;21.90;;
47381;SDS011;33128;51.580;5.170;2022-11-06T09:32:55;21.95;;;20.80;;
47381;SDS011;33128;51.580;5.170;2022-11-06T09:35:24;21.95;;;20.52;;
47381;SDS011;33128;51.580;5.170;2022-11-06T09:37:50;20.92;;;20.13;;
47381;SDS011;33128;51.580;5.170;2022-11-06T09:40:17;20.85;;;19.95;;
47381;SDS011;33128;51.580;5.170;2022-11-06T09:45:18;22.40;;;21.30;;
47381;SDS011;33128;51.580;5.170;2022-11-06T09:50:38;20.73;;;19.63;;
47381;SDS011;33128;51.580;5.170;2022-11-06T09:53:15;21.58;;;20.30;;
47381;SDS011;33128;51.580;5.170;2022-11-06T09:55:58;21.33;;;20.00;;
47381;SDS011;33128;51.580;5.170;2022-11-06T09:58:30;20.48;;;19.42;;
47381;SDS011;33128;51.580;5.170;2022-11-06T10:03:54;20.90;;;20.05;;
47381;SDS011;33128;51.580;5.170;2022-11-06T10:06:22;20.85;;;19.90;;
47381;SDS011;33128;51.580;5.170;2022-11-06T10:08:49;21.40;;;20.30;;
47381;SDS011;33128;51.580;5.170;2022-11-06T10:22:13;19.23;;;18.25;;
47381;SDS011;33128;51.580;5.170;2022-11-06T10:25:07;19.38;;;18.30;;
47381;SDS011;33128;51.580;5.170;2022-11-06T10:28:02;19.52;;;18.63;;
47381;SDS011;33128;51.580;5.170;2022-11-06T10:30:41;19.83;;;18.90;;
47381;SDS011;33128;51.580;5.170;2022-11-06T10:33:16;19.65;;;18.75;;
47381;SDS011;33128;51.580;5.170;2022-11-06T10:36:10;20.95;;;19.58;;
47381;SDS011;33128;51.580;5.170;2022-11-06T10:38:40;20.85;;;19.75;;
47381;SDS011;33128;51.580;5.170;2022-11-06T10:41:16;20.00;;;18.83;;
47381;SDS011;33128;51.580;5.170;2022-11-06T10:43:50;20.70;;;19.38;;
47381;SDS011;33128;51.580;5.170;2022-11-06T10:46:37;21.02;;;19.80;;
47381;SDS011;33128;51.580;5.170;2022-11-06T10:49:29;20.83;;;19.55;;
47381;SDS011;33128;51.580;5.170;2022-11-06T10:52:15;21.33;;;20.25;;
47381;SDS011;33128;51.580;5.170;2022-11-06T11:00:20;21.55;;;20.65;;
47381;SDS011;33128;51.580;5.170;2022-11-06T11:02:47;21.60;;;20.60;;
47381;SDS011;33128;51.580;5.170;2022-11-06T11:05:17;21.98;;;20.73;;
47381;SDS011;33128;51.580;5.170;2022-11-06T11:07:45;20.90;;;19.75;;
47381;SDS011;33128;51.580;5.170;2022-11-06T11:12:47;20.80;;;19.70;;
47381;SDS011;33128;51.580;5.170;2022-11-06T11:15:21;21.00;;;19.88;;
47381;SDS011;33128;51.580;5.170;2022-11-06T11:18:08;21.45;;;20.13;;
47381;SDS011;33128;51.580;5.170;2022-11-06T11:20:37;20.65;;;19.70;;
47381;SDS011;33128;51.580;5.170;2022-11-06T11:23:17;21.15;;;19.98;;
47381;SDS011;33128;51.580;5.170;2022-11-06T11:25:52;21.63;;;20.48;;
47381;SDS011;33128;51.580;5.170;2022-11-06T11:28:23;20.70;;;19.65;;
47381;SDS011;33128;51.580;5.170;2022-11-06T11:30:53;21.40;;;20.20;;
47381;SDS011;33128;51.580;5.170;2022-11-06T11:33:24;22.45;;;20.92;;
47381;SDS011;33128;51.580;5.170;2022-11-06T11:35:50;22.48;;;20.90;;
47381;SDS011;33128;51.580;5.170;2022-11-06T11:38:17;21.15;;;20.13;;
47381;SDS011;33128;51.580;5.170;2022-11-06T11:40:45;20.90;;;19.90;;
47381;SDS011;33128;51.580;5.170;2022-11-06T11:48:45;21.10;;;19.75;;
47381;SDS011;33128;51.580;5.170;2022-11-06T11:56:33;21.00;;;19.90;;
47381;SDS011;33128;51.580;5.170;2022-11-06T11:59:35;21.80;;;20.70;;
47381;SDS011;33128;51.580;5.170;2022-11-06T12:02:03;21.42;;;19.98;;
47381;SDS011;33128;51.580;5.170;2022-11-06T12:04:59;19.98;;;19.00;;
47381;SDS011;33128;51.580;5.170;2022-11-06T12:07:48;21.17;;;19.63;;
47381;SDS011;33128;51.580;5.170;2022-11-06T12:12:58;20.65;;;19.13;;
47381;SDS011;33128;51.580;5.170;2022-11-06T12:15:28;20.48;;;19.00;;
47381;SDS011;33128;51.580;5.170;2022-11-06T12:18:04;20.50;;;19.40;;
47381;SDS011;33128;51.580;5.170;2022-11-06T12:23:13;21.20;;;19.75;;
47381;SDS011;33128;51.580;5.170;2022-11-06T12:25:43;20.88;;;19.80;;
47381;SDS011;33128;51.580;5.170;2022-11-06T12:28:17;20.13;;;19.02;;
47381;SDS011;33128;51.580;5.170;2022-11-06T12:30:48;20.80;;;19.90;;
47381;SDS011;33128;51.580;5.170;2022-11-06T12:33:18;20.63;;;19.50;;
47381;SDS011;33128;51.580;5.170;2022-11-06T12:35:47;21.05;;;19.65;;
47381;SDS011;33128;51.580;5.170;2022-11-06T12:41:24;20.85;;;19.85;;
47381;SDS011;33128;51.580;5.170;2022-11-06T12:43:56;22.20;;;20.80;;
47381;SDS011;33128;51.580;5.170;2022-11-06T12:49:55;21.77;;;20.58;;
47381;SDS011;33128;51.580;5.170;2022-11-06T12:55:38;22.17;;;21.02;;
47381;SDS011;33128;51.580;5.170;2022-11-06T12:58:16;21.92;;;20.85;;
47381;SDS011;33128;51.580;5.170;2022-11-06T13:04:01;22.08;;;20.77;;
47381;SDS011;33128;51.580;5.170;2022-11-06T13:09:25;21.65;;;20.40;;
47381;SDS011;33128;51.580;5.170;2022-11-06T13:15:05;21.20;;;20.30;;
47381;SDS011;33128;51.580;5.170;2022-11-06T13:23:13;21.05;;;20.15;;
47381;SDS011;33128;51.580;5.170;2022-11-06T13:28:50;20.77;;;19.60;;
47381;SDS011;33128;51.580;5.170;2022-11-06T13:31:20;21.02;;;19.88;;
47381;SDS011;33128;51.580;5.170;2022-11-06T13:33:53;19.92;;;19.02;;
47381;SDS011;33128;51.580;5.170;2022-11-06T13:36:23;20.27;;;19.38;;
47381;SDS011;33128;51.580;5.170;2022-11-06T13:38:52;20.73;;;19.73;;
47381;SDS011;33128;51.580;5.170;2022-11-06T13:41:29;19.55;;;18.65;;
47381;SDS011;33128;51.580;5.170;2022-11-06T13:43:57;20.25;;;19.25;;
47381;SDS011;33128;51.580;5.170;2022-11-06T13:46:32;21.08;;;19.80;;
47381;SDS011;33128;51.580;5.170;2022-11-06T13:51:54;20.58;;;19.30;;
47381;SDS011;33128;51.580;5.170;2022-11-06T14:00:25;21.48;;;20.25;;
47381;SDS011;33128;51.580;5.170;2022-11-06T14:08:15;20.85;;;19.60;;
47381;SDS011;33128;51.580;5.170;2022-11-06T14:10:52;19.80;;;18.55;;
47381;SDS011;33128;51.580;5.170;2022-11-06T14:13:25;19.70;;;18.73;;
47381;SDS011;33128;51.580;5.170;2022-11-06T14:16:04;19.85;;;18.83;;
47381;SDS011;33128;51.580;5.170;2022-11-06T14:18:38;20.25;;;19.38;;
47381;SDS011;33128;51.580;5.170;2022-11-06T14:21:24;19.48;;;18.67;;
47381;SDS011;33128;51.580;5.170;2022-11-06T14:32:00;10.70;;;10.30;;
47381;SDS011;33128;51.580;5.170;2022-11-06T14:34:32;11.60;;;11.10;;
47381;SDS011;33128;51.580;5.170;2022-11-06T14:42:30;11.52;;;10.82;;
47381;SDS011;33128;51.580;5.170;2022-11-06T14:45:00;11.32;;;10.60;;
47381;SDS011;33128;51.580;5.170;2022-11-06T14:47:36;11.13;;;10.68;;
47381;SDS011;33128;51.580;5.170;2022-11-06T14:50:08;9.65;;;9.15;;
47381;SDS011;33128;51.580;5.170;2022-11-06T14:52:53;10.30;;;9.73;;
47381;SDS011;33128;51.580;5.170;2022-11-06T14:55:39;10.85;;;9.82;;
47381;SDS011;33128;51.580;5.170;2022-11-06T15:00:54;10.30;;;9.82;;
47381;SDS011;33128;51.580;5.170;2022-11-06T15:05:58;10.88;;;10.30;;
47381;SDS011;33128;51.580;5.170;2022-11-06T15:19:18;9.57;;;9.18;;
47381;SDS011;33128;51.580;5.170;2022-11-06T15:24:27;10.20;;;9.85;;
47381;SDS011;33128;51.580;5.170;2022-11-06T15:26:57;10.27;;;9.68;;
47381;SDS011;33128;51.580;5.170;2022-11-06T15:29:30;9.60;;;9.30;;
47381;SDS011;33128;51.580;5.170;2022-11-06T15:32:09;10.55;;;9.90;;
47381;SDS011;33128;51.580;5.170;2022-11-06T15:34:42;10.65;;;10.07;;
47381;SDS011;33128;51.580;5.170;2022-11-06T15:39:39;11.27;;;10.73;;
47381;SDS011;33128;51.580;5.170;2022-11-06T15:42:14;11.00;;;10.53;;
47381;SDS011;33128;51.580;5.170;2022-11-06T15:44:45;12.05;;;11.45;;
47381;SDS011;33128;51.580;5.170;2022-11-06T15:47:45;10.52;;;10.13;;
47381;SDS011;33128;51.580;5.170;2022-11-06T15:50:15;10.40;;;10.00;;
47381;SDS011;33128;51.580;5.170;2022-11-06T15:52:46;11.20;;;10.70;;
47381;SDS011;33128;51.580;5.170;2022-11-06T15:55:14;11.00;;;10.50;;
47381;SDS011;33128;51.580;5.170;2022-11-06T15:57:48;9.85;;;9.48;;
47381;SDS011;33128;51.580;5.170;2022-11-06T16:02:46;10.80;;;10.30;;
47381;SDS011;33128;51.580;5.170;2022-11-06T16:05:21;11.65;;;11.13;;
47381;SDS011;33128;51.580;5.170;2022-11-06T16:07:48;11.45;;;10.95;;
47381;SDS011;33128;51.580;5.170;2022-11-06T16:10:15;10.60;;;10.20;;
47381;SDS011;33128;51.580;5.170;2022-11-06T16:12:44;11.13;;;10.60;;
47381;SDS011;33128;51.580;5.170;2022-11-06T16:20:54;10.63;;;10.05;;
47381;SDS011;33128;51.580;5.170;2022-11-06T16:23:42;10.57;;;10.17;;
47381;SDS011;33128;51.580;5.170;2022-11-06T16:26:13;10.60;;;10.10;;
47381;SDS011;33128;51.580;5.170;2022-11-06T16:28:42;10.40;;;9.82;;
47381;SDS011;33128;51.580;5.170;2022-11-06T16:31:28;9.77;;;9.38;;
47381;SDS011;33128;51.580;5.170;2022-11-06T16:33:55;11.32;;;10.68;;
47381;SDS011;33128;51.580;5.170;2022-11-06T16:36:24;11.00;;;10.50;;
47381;SDS011;33128;51.580;5.170;2022-11-06T16:38:51;10.02;;;9.63;;
47381;SDS011;33128;51.580;5.170;2022-11-06T16:41:19;9.55;;;9.15;;
47381;SDS011;33128;51.580;5.170;2022-11-06T16:54:49;10.35;;;9.77;;
47381;SDS011;33128;51.580;5.170;2022-11-06T16:57:16;11.82;;;11.32;;
47381;SDS011;33128;51.580;5.170;2022-11-06T16:59:54;10.00;;;9.70;;
47381;SDS011;33128;51.580;5.170;2022-11-06T17:02:23;11.15;;;10.70;;
47381;SDS011;33128;51.580;5.170;2022-11-06T17:05:02;11.73;;;11.02;;
47381;SDS011;33128;51.580;5.170;2022-11-06T17:07:35;11.05;;;10.55;;
47381;SDS011;33128;51.580;5.170;2022-11-06T17:10:22;10.20;;;9.80;;
47381;SDS011;33128;51.580;5.170;2022-11-06T17:12:50;11.00;;;10.50;;
47381;SDS011;33128;51.580;5.170;2022-11-06T17:15:16;10.43;;;9.93;;
47381;SDS011;33128;51.580;5.170;2022-11-06T17:17:43;10.40;;;10.00;;
47381;SDS011;33128;51.580;5.170;2022-11-06T17:20:11;10.10;;;9.50;;
47381;SDS011;33128;51.580;5.170;2022-11-06T17:22:40;10.90;;;10.23;;
47381;SDS011;33128;51.580;5.170;2022-11-06T17:25:06;10.73;;;10.32;;
47381;SDS011;33128;51.580;5.170;2022-11-06T17:27:32;10.40;;;10.00;;
47381;SDS011;33128;51.580;5.170;2022-11-06T17:29:57;10.27;;;9.82;;
47381;SDS011;33128;51.580;5.170;2022-11-06T17:32:26;10.40;;;9.85;;